Аэропорт: Львов имени Даниила Галицкого. Львов

ICAO: UKLL

METAR:
2021-04-21 21:00:00
UKLL 212100Z 22002MPS 190V260 CAVOK 07/05 Q1014 R13/290055 NOSIG
METAR:
2021-04-21 17:01:00
TAF UKLL 211701Z 2118/2218 VRB01MPS 4000 BR SCT004 BKN010 BKN025CB TEMPO 2118/2120 VRB07G12MPS 3000 -TSRAGR BKN007 BKN020CB TEMPO 2120/2210 24005MPS 2100 -SHRA BKN007 BKN020CB TEMPO 2210/2218 VRB09G14MPS 2100 -TSRAGR BKN007 BKN020CB